createdAt,value
2019-04-26T00:01:05.492Z,18.75
2019-04-26T00:02:41.358Z,19.37
2019-04-26T00:04:16.235Z,18.07
2019-04-26T00:05:50.493Z,18.45
2019-04-26T00:07:24.838Z,18.92
2019-04-26T00:09:01.146Z,19.70
2019-04-26T00:10:53.451Z,18.95
2019-04-26T00:12:32.193Z,18.23
2019-04-26T00:14:14.495Z,18.30
2019-04-26T00:16:08.503Z,19.67
2019-04-26T00:17:47.471Z,18.10
2019-04-26T00:19:22.312Z,19.73
2019-04-26T00:20:57.037Z,22.50
2019-04-26T00:22:32.896Z,21.95
2019-04-26T00:24:07.192Z,23.90
2019-04-26T00:25:41.751Z,23.67
2019-04-26T00:27:16.749Z,24.45
2019-04-26T00:28:51.286Z,29.42
2019-04-26T00:30:25.884Z,23.27
2019-04-26T00:32:00.349Z,25.92
2019-04-26T00:33:34.619Z,24.77
2019-04-26T00:35:08.945Z,23.45
2019-04-26T00:36:43.242Z,22.45
2019-04-26T00:38:18.207Z,24.70
2019-04-26T00:39:52.452Z,24.72
2019-04-26T00:41:27.741Z,25.95
2019-04-26T00:43:04.152Z,25.52
2019-04-26T00:44:39.384Z,27.35
2019-04-26T00:46:15.199Z,27.93
2019-04-26T00:47:50.160Z,25.90
2019-04-26T00:49:25.080Z,26.02
2019-04-26T00:51:01.373Z,26.75
2019-04-26T00:52:36.409Z,27.17
2019-04-26T00:54:11.712Z,27.42
2019-04-26T00:55:46.968Z,27.40
2019-04-26T00:57:22.466Z,25.92
2019-04-26T00:58:57.074Z,21.48
2019-04-26T01:00:31.360Z,21.27
2019-04-26T01:02:15.295Z,21.02
2019-04-26T01:03:50.479Z,21.93
2019-04-26T01:05:25.255Z,21.00
2019-04-26T01:07:00.000Z,20.48
2019-04-26T01:08:34.268Z,21.45
2019-04-26T01:10:08.567Z,19.90
2019-04-26T01:11:42.801Z,21.27
2019-04-26T01:13:17.871Z,21.80
2019-04-26T01:14:52.896Z,19.75
2019-04-26T01:16:27.180Z,21.30
2019-04-26T01:18:01.904Z,20.08
2019-04-26T01:19:38.119Z,19.45
2019-04-26T01:21:14.758Z,20.82
2019-04-26T01:22:51.925Z,20.45
2019-04-26T01:24:28.541Z,20.52
2019-04-26T01:26:05.699Z,20.12
2019-04-26T01:27:40.024Z,19.98
2019-04-26T01:29:17.176Z,20.37
2019-04-26T01:30:54.208Z,20.08
2019-04-26T01:32:30.604Z,20.17
2019-04-26T01:34:05.560Z,19.32
2019-04-26T01:35:40.578Z,19.07
2019-04-26T01:37:15.192Z,19.60
2019-04-26T01:38:52.680Z,19.65
2019-04-26T01:40:28.580Z,19.05
2019-04-26T01:42:22.375Z,21.60
2019-04-26T01:44:10.081Z,18.73
2019-04-26T01:45:51.771Z,19.95
2019-04-26T01:47:26.892Z,20.75
2019-04-26T01:49:04.315Z,21.25
2019-04-26T01:50:38.650Z,21.33
2019-04-26T01:52:15.395Z,21.35
2019-04-26T01:53:52.255Z,22.65
2019-04-26T01:55:29.551Z,22.35
2019-04-26T01:57:04.978Z,21.20
2019-04-26T01:58:39.637Z,22.62
2019-04-26T02:00:19.391Z,20.80
2019-04-26T02:01:57.781Z,21.97
2019-04-26T02:03:32.000Z,20.65
2019-04-26T02:05:09.415Z,21.97
2019-04-26T02:06:43.641Z,21.23
2019-04-26T02:08:18.060Z,20.57
2019-04-26T02:09:52.344Z,20.27
2019-04-26T02:11:26.763Z,21.45
2019-04-26T02:13:01.329Z,19.57
2019-04-26T02:14:35.539Z,20.97
2019-04-26T02:16:10.308Z,19.02
2019-04-26T02:17:46.180Z,19.95
2019-04-26T02:19:20.906Z,19.70
2019-04-26T02:21:05.241Z,20.60
2019-04-26T02:22:44.916Z,19.98
2019-04-26T02:24:24.875Z,19.75
2019-04-26T02:26:01.295Z,21.30
2019-04-26T02:27:35.576Z,21.57
2019-04-26T02:29:15.436Z,22.77
2019-04-26T02:30:50.098Z,23.15
2019-04-26T02:32:26.709Z,21.65
2019-04-26T02:34:03.648Z,20.68
2019-04-26T02:35:38.020Z,21.50
2019-04-26T02:37:14.148Z,21.73
2019-04-26T02:38:49.378Z,21.33
2019-04-26T02:40:23.615Z,20.72
2019-04-26T02:42:00.822Z,21.05
2019-04-26T02:43:37.219Z,21.48
2019-04-26T02:45:26.862Z,20.20
2019-04-26T02:47:30.985Z,21.33
2019-04-26T02:49:07.544Z,19.60
2019-04-26T02:50:46.324Z,20.45
2019-04-26T02:52:42.601Z,19.87
2019-04-26T02:54:27.850Z,20.80
2019-04-26T02:56:17.908Z,20.57
2019-04-26T02:57:54.285Z,22.17
2019-04-26T02:59:36.369Z,23.45
2019-04-26T03:01:11.219Z,22.20
2019-04-26T03:02:48.756Z,22.58
2019-04-26T03:04:26.117Z,21.82
2019-04-26T03:06:01.754Z,20.32
2019-04-26T03:07:42.811Z,20.48
2019-04-26T03:09:17.901Z,20.27
2019-04-26T03:10:55.046Z,19.35
2019-04-26T03:12:33.858Z,23.83
2019-04-26T03:14:12.650Z,22.98
2019-04-26T03:15:54.236Z,21.20
2019-04-26T03:17:43.063Z,21.07
2019-04-26T03:19:38.162Z,20.92
2019-04-26T03:21:18.301Z,22.32
2019-04-26T03:23:41.599Z,21.05
2019-04-26T03:25:15.284Z,20.37
2019-04-26T03:26:58.379Z,18.30
2019-04-26T03:28:43.439Z,18.73
2019-04-26T03:30:23.619Z,17.37
2019-04-26T03:32:07.030Z,17.57
2019-04-26T03:34:00.893Z,18.02
2019-04-26T03:35:52.421Z,16.90
2019-04-26T03:37:42.666Z,17.52
2019-04-26T03:39:24.425Z,18.02
2019-04-26T03:41:08.784Z,19.90
2019-04-26T03:43:14.523Z,18.45
2019-04-26T03:45:08.432Z,18.55
2019-04-26T03:46:48.133Z,18.92
2019-04-26T03:48:31.361Z,18.25
2019-04-26T03:50:17.674Z,21.52
2019-04-26T03:52:12.681Z,19.82
2019-04-26T03:53:52.747Z,19.02
2019-04-26T03:55:31.580Z,18.75
2019-04-26T03:57:25.028Z,18.02
2019-04-26T03:59:03.815Z,17.75
2019-04-26T04:00:44.961Z,17.35
2019-04-26T04:02:25.969Z,17.20
2019-04-26T04:04:19.487Z,17.27
2019-04-26T04:05:57.784Z,17.05
2019-04-26T04:07:39.083Z,17.07
2019-04-26T04:09:10.753Z,16.67
2019-04-26T04:10:50.912Z,16.12
2019-04-26T04:12:28.145Z,16.20
2019-04-26T04:14:05.652Z,16.70
2019-04-26T04:15:46.746Z,17.07
2019-04-26T04:17:26.469Z,19.85
2019-04-26T04:19:22.239Z,18.92
2019-04-26T04:21:37.463Z,17.37
2019-04-26T04:23:39.780Z,17.95
2019-04-26T04:25:29.205Z,16.82
2019-04-26T04:27:12.204Z,16.23
2019-04-26T04:29:38.705Z,15.60
2019-04-26T04:31:19.160Z,15.05
2019-04-26T04:33:24.856Z,14.25
2019-04-26T04:35:06.113Z,14.45
2019-04-26T04:36:42.171Z,14.25
2019-04-26T04:38:54.992Z,14.13
2019-04-26T04:41:13.870Z,14.20
2019-04-26T04:43:01.369Z,12.98
2019-04-26T04:45:11.323Z,13.55
2019-04-26T04:47:25.325Z,12.68
2019-04-26T04:49:23.132Z,12.58
2019-04-26T04:51:27.362Z,13.28
2019-04-26T04:53:07.370Z,13.03
2019-04-26T04:55:01.704Z,13.32
2019-04-26T04:56:29.217Z,12.63
2019-04-26T04:58:11.689Z,12.18
2019-04-26T05:00:00.904Z,12.78
2019-04-26T05:01:48.709Z,12.37
2019-04-26T05:03:39.392Z,14.83
2019-04-26T05:05:43.696Z,13.32
2019-04-26T05:07:35.185Z,12.05
2019-04-26T05:09:12.354Z,13.18
2019-04-26T05:10:58.188Z,14.28
2019-04-26T05:12:59.435Z,14.35
2019-04-26T05:14:46.215Z,13.65
2019-04-26T05:16:45.429Z,14.65
2019-04-26T05:18:44.125Z,16.20
2019-04-26T05:20:31.623Z,14.50
2019-04-26T05:22:29.228Z,17.77
2019-04-26T05:24:26.998Z,17.45
2019-04-26T05:26:36.106Z,18.10
2019-04-26T05:29:06.358Z,18.27
2019-04-26T05:31:12.293Z,17.02
2019-04-26T05:33:04.349Z,19.00
2019-04-26T05:34:52.852Z,16.05
2019-04-26T05:36:33.056Z,16.48
2019-04-26T05:38:18.502Z,15.68
2019-04-26T05:39:57.721Z,15.40
2019-04-26T05:42:08.098Z,11.30
2019-04-26T05:44:05.797Z,10.68
2019-04-26T05:46:12.758Z,10.60
2019-04-26T05:48:23.192Z,11.63
2019-04-26T05:50:42.842Z,9.95
2019-04-26T05:52:43.372Z,10.30
2019-04-26T05:54:39.420Z,10.18
2019-04-26T05:56:46.470Z,10.10
2019-04-26T05:58:41.933Z,12.30
2019-04-26T06:00:38.481Z,11.08
2019-04-26T06:02:51.278Z,10.75
2019-04-26T06:04:41.780Z,11.48
2019-04-26T06:06:29.536Z,9.93
2019-04-26T06:08:31.088Z,10.78
2019-04-26T06:10:11.813Z,12.58
2019-04-26T06:11:51.881Z,11.00
2019-04-26T06:13:45.888Z,11.90
2019-04-26T06:15:42.008Z,13.13
2019-04-26T06:17:26.528Z,12.15
2019-04-26T06:19:24.365Z,13.98
2019-04-26T06:21:04.792Z,14.20
2019-04-26T06:22:41.968Z,13.98
2019-04-26T06:24:30.856Z,13.20
2019-04-26T06:26:33.061Z,14.05
2019-04-26T06:28:10.220Z,12.25
2019-04-26T06:30:04.291Z,12.55
2019-04-26T06:31:44.552Z,12.60
2019-04-26T06:33:30.633Z,12.13
2019-04-26T06:35:10.871Z,13.08
2019-04-26T06:36:53.247Z,11.57
2019-04-26T06:38:50.958Z,12.82
2019-04-26T06:40:51.019Z,14.45
2019-04-26T06:42:44.881Z,11.57
2019-04-26T06:44:23.730Z,13.43
2019-04-26T06:46:14.393Z,12.28
2019-04-26T06:48:06.065Z,11.53
2019-04-26T06:49:47.925Z,11.63
2019-04-26T06:51:38.004Z,11.10
2019-04-26T06:53:17.959Z,11.38
2019-04-26T06:55:11.944Z,11.15
2019-04-26T06:57:13.419Z,11.15
2019-04-26T06:58:55.044Z,10.75
2019-04-26T07:00:36.561Z,10.48
2019-04-26T07:02:13.796Z,10.45
2019-04-26T07:03:58.327Z,11.15
2019-04-26T07:05:35.628Z,10.10
2019-04-26T07:07:47.660Z,10.43
2019-04-26T07:09:24.885Z,10.90
2019-04-26T07:11:12.988Z,10.50
2019-04-26T07:12:56.880Z,10.82
2019-04-26T07:14:39.720Z,10.68
2019-04-26T07:16:23.191Z,11.05
2019-04-26T07:18:04.716Z,9.55
2019-04-26T07:20:08.102Z,10.38
2019-04-26T07:22:34.557Z,11.20
2019-04-26T07:24:24.762Z,10.93
2019-04-26T07:26:18.239Z,9.68
2019-04-26T07:28:14.585Z,9.33
2019-04-26T07:30:07.252Z,8.45
2019-04-26T07:32:03.282Z,7.72
2019-04-26T07:34:00.805Z,9.50
2019-04-26T07:35:48.084Z,9.05
2019-04-26T07:37:50.768Z,9.93
2019-04-26T07:39:53.238Z,9.40
2019-04-26T07:41:38.049Z,8.75
2019-04-26T07:43:28.664Z,8.83
2019-04-26T07:45:29.872Z,8.98
2019-04-26T07:47:07.020Z,8.85
2019-04-26T07:48:52.454Z,9.00
2019-04-26T07:51:03.101Z,8.95
2019-04-26T07:53:03.671Z,8.88
2019-04-26T07:55:09.376Z,9.20
2019-04-26T07:57:22.733Z,8.85
2019-04-26T07:59:20.740Z,9.45
2019-04-26T08:00:59.528Z,8.73
2019-04-26T08:02:38.336Z,7.62
2019-04-26T08:04:23.016Z,7.35
2019-04-26T08:06:02.969Z,7.05
2019-04-26T08:07:43.908Z,6.97
2019-04-26T08:09:27.029Z,7.08
2019-04-26T08:11:20.863Z,7.28
2019-04-26T08:13:04.599Z,5.90
2019-04-26T08:15:04.601Z,6.30
2019-04-26T08:17:12.543Z,6.40
2019-04-26T08:18:53.866Z,6.83
2019-04-26T08:20:41.492Z,6.78
2019-04-26T08:22:23.089Z,6.95
2019-04-26T08:23:59.583Z,6.67
2019-04-26T08:25:36.643Z,6.47
2019-04-26T08:27:22.567Z,6.33
2019-04-26T08:28:52.153Z,6.33
2019-04-26T08:30:28.405Z,6.08
2019-04-26T08:32:08.496Z,5.92
2019-04-26T08:33:50.186Z,6.33
2019-04-26T08:35:29.052Z,5.75
2019-04-26T08:37:19.007Z,5.58
2019-04-26T08:38:54.100Z,6.10
2019-04-26T08:40:31.272Z,6.47
2019-04-26T08:42:11.856Z,6.95
2019-04-26T08:43:46.473Z,5.35
2019-04-26T08:45:30.853Z,6.55
2019-04-26T08:47:13.775Z,5.70
2019-04-26T08:48:53.767Z,6.55
2019-04-26T08:50:30.017Z,5.70
2019-04-26T08:52:14.330Z,5.50
2019-04-26T08:53:44.613Z,6.33
2019-04-26T08:55:21.302Z,5.72
2019-04-26T08:56:58.448Z,5.42
2019-04-26T08:58:35.589Z,6.10
2019-04-26T09:00:15.490Z,5.92
2019-04-26T09:01:53.384Z,6.40
2019-04-26T09:03:40.917Z,6.45
2019-04-26T09:05:35.789Z,5.55
2019-04-26T09:07:14.576Z,6.83
2019-04-26T09:08:51.457Z,6.20
2019-04-26T09:10:28.244Z,6.08
2019-04-26T09:12:09.808Z,6.40
2019-04-26T09:13:49.820Z,6.53
2019-04-26T09:15:42.350Z,6.45
2019-04-26T09:17:16.668Z,6.30
2019-04-26T09:18:54.266Z,5.78
2019-04-26T09:20:29.628Z,5.50
2019-04-26T09:22:14.047Z,5.78
2019-04-26T09:23:52.017Z,6.08
2019-04-26T09:25:34.477Z,6.65
2019-04-26T09:27:26.106Z,6.33
2019-04-26T09:29:04.739Z,6.40
2019-04-26T09:30:42.419Z,6.35
2019-04-26T09:32:27.883Z,5.92
2019-04-26T09:34:01.957Z,6.67
2019-04-26T09:35:36.813Z,6.58
2019-04-26T09:37:11.397Z,6.35
2019-04-26T09:38:45.669Z,6.33
2019-04-26T09:40:22.697Z,6.80
2019-04-26T09:41:57.461Z,5.67
2019-04-26T09:43:36.383Z,5.62
2019-04-26T09:45:28.768Z,5.90
2019-04-26T09:47:19.960Z,7.00
2019-04-26T09:49:03.066Z,6.20
2019-04-26T09:50:39.754Z,5.85
2019-04-26T09:52:18.329Z,6.45
2019-04-26T09:53:52.548Z,6.65
2019-04-26T09:55:35.359Z,5.90
2019-04-26T09:57:02.707Z,6.08
2019-04-26T09:58:36.961Z,7.00
2019-04-26T10:00:15.334Z,6.28
2019-04-26T10:01:49.625Z,6.45
2019-04-26T10:03:23.835Z,5.85
2019-04-26T10:04:59.728Z,6.53
2019-04-26T10:06:36.017Z,6.65
2019-04-26T10:08:13.159Z,7.03
2019-04-26T10:09:46.100Z,6.22
2019-04-26T10:11:21.996Z,6.62
2019-04-26T10:12:57.858Z,6.17
2019-04-26T10:14:33.756Z,7.03
2019-04-26T10:16:09.618Z,5.50
2019-04-26T10:17:46.441Z,7.25
2019-04-26T10:19:21.369Z,6.15
2019-04-26T10:20:55.581Z,7.00
2019-04-26T10:22:31.972Z,6.70
2019-04-26T10:24:08.329Z,6.85
2019-04-26T10:25:42.495Z,6.53
2019-04-26T10:27:16.776Z,6.22
2019-04-26T10:28:52.192Z,6.80
2019-04-26T10:30:26.720Z,6.33
2019-04-26T10:32:00.943Z,7.42
2019-04-26T10:33:36.533Z,6.30
2019-04-26T10:35:11.117Z,6.60
2019-04-26T10:36:45.329Z,7.70
2019-04-26T10:38:23.595Z,6.58
2019-04-26T10:39:55.415Z,7.37
2019-04-26T10:41:29.672Z,7.12
2019-04-26T10:43:04.456Z,7.72
2019-04-26T10:44:39.987Z,7.00
2019-04-26T10:46:14.547Z,8.25
2019-04-26T10:47:48.800Z,7.60
2019-04-26T10:49:41.741Z,6.53
2019-04-26T10:51:17.636Z,6.80
2019-04-26T10:53:02.279Z,7.03
2019-04-26T10:54:41.101Z,7.72
2019-04-26T10:56:20.293Z,6.87
2019-04-26T10:58:10.624Z,8.40
2019-04-26T10:59:49.204Z,7.20
2019-04-26T11:01:23.425Z,7.62
2019-04-26T11:03:00.130Z,7.90
2019-04-26T11:04:37.251Z,6.87
2019-04-26T11:06:09.448Z,6.85
2019-04-26T11:07:43.660Z,7.17
2019-04-26T11:09:19.176Z,8.18
2019-04-26T11:10:53.430Z,8.00
2019-04-26T11:12:27.640Z,7.47
2019-04-26T11:14:01.956Z,7.28
2019-04-26T11:15:36.245Z,7.33
2019-04-26T11:17:11.501Z,6.78
2019-04-26T11:18:46.912Z,7.65
2019-04-26T11:20:21.114Z,8.23
2019-04-26T11:21:56.017Z,7.97
2019-04-26T11:23:30.383Z,7.30
2019-04-26T11:25:05.696Z,7.97
2019-04-26T11:26:40.290Z,7.50
2019-04-26T11:28:17.248Z,8.03
2019-04-26T11:29:53.944Z,8.68
2019-04-26T11:31:27.589Z,8.90
2019-04-26T11:33:02.122Z,9.10
2019-04-26T11:34:36.343Z,8.25
2019-04-26T11:36:10.628Z,8.43
2019-04-26T11:37:46.467Z,7.92
2019-04-26T11:39:21.090Z,7.37
2019-04-26T11:41:05.822Z,8.30
2019-04-26T11:42:31.271Z,8.45
2019-04-26T11:44:05.492Z,7.12
2019-04-26T11:45:39.776Z,8.00
2019-04-26T11:47:14.203Z,8.73
2019-04-26T11:48:58.568Z,8.48
2019-04-26T11:50:24.268Z,7.80
2019-04-26T11:52:02.513Z,7.45
2019-04-26T11:53:34.380Z,8.13
2019-04-26T11:55:08.589Z,8.10
2019-04-26T11:56:43.211Z,7.10
2019-04-26T11:58:17.815Z,6.90
2019-04-26T11:59:53.276Z,7.42
2019-04-26T12:01:29.316Z,7.28
2019-04-26T12:03:03.609Z,6.92
2019-04-26T12:04:53.750Z,6.78
2019-04-26T12:06:29.216Z,7.08
2019-04-26T12:08:14.389Z,7.70
2019-04-26T12:09:50.251Z,8.25
2019-04-26T12:11:30.317Z,7.17
2019-04-26T12:13:06.001Z,7.47
2019-04-26T12:14:36.616Z,7.87
2019-04-26T12:16:14.599Z,6.97
2019-04-26T12:17:58.032Z,6.60
2019-04-26T12:19:22.629Z,6.83
2019-04-26T12:21:00.676Z,8.05
2019-04-26T12:22:32.892Z,7.33
2019-04-26T12:24:07.272Z,7.80
2019-04-26T12:25:43.704Z,7.47
2019-04-26T12:27:18.014Z,7.42
2019-04-26T12:28:52.539Z,6.75
2019-04-26T12:30:26.974Z,7.55
2019-04-26T12:32:01.381Z,6.92
2019-04-26T12:33:39.164Z,7.03
2019-04-26T12:35:11.612Z,7.67
2019-04-26T12:36:45.845Z,6.03
2019-04-26T12:38:20.124Z,7.53
2019-04-26T12:39:54.381Z,6.72
2019-04-26T12:41:39.907Z,7.58
2019-04-26T12:43:04.452Z,7.40
2019-04-26T12:44:59.009Z,6.87
2019-04-26T12:46:34.853Z,6.33
2019-04-26T12:48:15.706Z,7.22
2019-04-26T12:49:49.316Z,6.65
2019-04-26T12:51:25.220Z,7.75
2019-04-26T12:52:59.428Z,8.08
2019-04-26T12:54:33.695Z,7.50
2019-04-26T12:56:07.933Z,8.05
2019-04-26T12:57:42.458Z,6.75
2019-04-26T12:59:16.642Z,8.35
2019-04-26T13:00:54.139Z,6.62
2019-04-26T13:02:27.195Z,7.35
2019-04-26T13:04:05.765Z,6.95
2019-04-26T13:05:39.965Z,7.47
2019-04-26T13:07:23.509Z,7.67
2019-04-26T13:08:53.240Z,7.75
2019-04-26T13:10:31.292Z,11.00
2019-04-26T13:12:10.642Z,6.37
2019-04-26T13:13:46.483Z,6.67
2019-04-26T13:16:00.424Z,7.37
2019-04-26T13:17:38.749Z,8.15
2019-04-26T13:19:16.035Z,8.20
2019-04-26T13:20:48.813Z,8.23
2019-04-26T13:22:23.084Z,7.45
2019-04-26T13:24:00.272Z,7.83
2019-04-26T13:25:40.577Z,7.22
2019-04-26T13:27:12.363Z,7.05
2019-04-26T13:28:47.015Z,6.75
2019-04-26T13:30:32.429Z,7.53
2019-04-26T13:32:03.326Z,6.65
2019-04-26T13:33:37.584Z,7.08
2019-04-26T13:35:13.050Z,7.60
2019-04-26T13:36:47.652Z,7.42
2019-04-26T13:38:21.864Z,7.97
2019-04-26T13:39:56.735Z,7.12
2019-04-26T13:41:31.185Z,7.25
2019-04-26T13:43:07.843Z,7.08
2019-04-26T13:44:59.520Z,7.58
2019-04-26T13:46:35.385Z,7.97
2019-04-26T13:48:27.348Z,7.78
2019-04-26T13:50:03.209Z,6.85
2019-04-26T13:51:39.072Z,7.20
2019-04-26T13:53:13.277Z,8.13
2019-04-26T13:54:47.490Z,8.00
2019-04-26T13:56:21.753Z,7.28
2019-04-26T13:57:57.571Z,8.48
2019-04-26T13:59:32.795Z,8.10
2019-04-26T14:01:08.566Z,7.37
2019-04-26T14:02:43.219Z,7.85
2019-04-26T14:04:17.464Z,6.72
2019-04-26T14:05:51.649Z,7.83
2019-04-26T14:07:26.168Z,8.03
2019-04-26T14:09:02.832Z,8.13
2019-04-26T14:10:36.325Z,8.45
2019-04-26T14:12:18.230Z,7.85
2019-04-26T14:13:46.400Z,7.80
2019-04-26T14:15:20.644Z,7.87
2019-04-26T14:16:55.800Z,9.10
2019-04-26T14:18:34.620Z,7.87
2019-04-26T14:20:07.056Z,8.63
2019-04-26T14:21:41.279Z,8.10
2019-04-26T14:23:26.190Z,7.03
2019-04-26T14:25:02.634Z,8.03
2019-04-26T14:26:39.901Z,7.12
2019-04-26T14:28:14.324Z,8.25
2019-04-26T14:29:49.063Z,7.00
2019-04-26T14:31:23.296Z,7.80
2019-04-26T14:32:58.828Z,7.70
2019-04-26T14:34:36.170Z,7.92
2019-04-26T14:36:17.629Z,7.22
2019-04-26T14:37:45.521Z,7.67
2019-04-26T14:39:33.583Z,7.60
2019-04-26T14:41:04.166Z,8.48
2019-04-26T14:42:35.342Z,8.25
2019-04-26T14:44:15.379Z,8.48
2019-04-26T14:45:55.382Z,8.10
2019-04-26T14:47:20.365Z,8.05
2019-04-26T14:49:01.813Z,8.58
2019-04-26T14:50:31.973Z,8.35
2019-04-26T14:52:06.332Z,8.68
2019-04-26T14:53:40.542Z,8.08
2019-04-26T14:55:21.187Z,6.83
2019-04-26T14:56:53.373Z,7.42
2019-04-26T14:58:30.126Z,7.03
2019-04-26T15:00:05.006Z,7.30
2019-04-26T15:01:43.812Z,8.23
2019-04-26T15:03:20.917Z,6.53
2019-04-26T15:05:09.230Z,7.50
2019-04-26T15:06:44.038Z,7.72
2019-04-26T15:08:18.295Z,7.20
2019-04-26T15:09:53.006Z,7.50
2019-04-26T15:11:27.438Z,8.13
2019-04-26T15:13:14.231Z,7.25
2019-04-26T15:14:37.561Z,6.83
2019-04-26T15:16:14.169Z,6.30
2019-04-26T15:17:47.877Z,7.00
2019-04-26T15:19:22.563Z,7.53
2019-04-26T15:20:58.369Z,6.85
2019-04-26T15:22:33.042Z,7.40
2019-04-26T15:24:07.429Z,6.92
2019-04-26T15:25:48.097Z,6.50
2019-04-26T15:27:18.896Z,6.30
2019-04-26T15:28:53.108Z,6.37
2019-04-26T15:30:27.566Z,7.05
2019-04-26T15:32:03.235Z,7.75
2019-04-26T15:33:37.685Z,6.90
2019-04-26T15:35:15.640Z,7.72
2019-04-26T15:36:49.258Z,7.05
2019-04-26T15:38:23.906Z,8.58
2019-04-26T15:40:14.653Z,7.20
2019-04-26T15:42:03.161Z,8.48
2019-04-26T15:43:46.820Z,9.10
2019-04-26T15:45:25.619Z,8.20
2019-04-26T15:47:05.117Z,8.15
2019-04-26T15:48:44.912Z,6.20
2019-04-26T15:50:23.526Z,7.70
2019-04-26T15:51:59.741Z,7.42
2019-04-26T15:53:33.589Z,8.00
2019-04-26T15:55:08.145Z,7.75
2019-04-26T15:56:42.462Z,7.12
2019-04-26T15:58:16.673Z,7.00
2019-04-26T15:59:54.334Z,7.65
2019-04-26T16:01:26.858Z,7.78
2019-04-26T16:03:07.197Z,7.03
2019-04-26T16:04:39.107Z,7.67
2019-04-26T16:06:13.316Z,7.42
2019-04-26T16:07:47.604Z,7.10
2019-04-26T16:09:22.962Z,7.45
2019-04-26T16:10:57.335Z,6.85
2019-04-26T16:12:32.088Z,7.50
2019-04-26T16:14:06.652Z,6.50
2019-04-26T16:15:43.596Z,6.75
2019-04-26T16:17:16.782Z,6.95
2019-04-26T16:18:56.884Z,7.00
2019-04-26T16:20:33.126Z,7.28
2019-04-26T16:22:05.213Z,6.92
2019-04-26T16:23:43.249Z,7.53
2019-04-26T16:25:15.469Z,6.62
2019-04-26T16:26:50.790Z,7.03
2019-04-26T16:28:38.345Z,7.40
2019-04-26T16:30:28.438Z,7.30
2019-04-26T16:32:02.999Z,7.72
2019-04-26T16:33:44.816Z,8.25
2019-04-26T16:35:25.600Z,8.28
2019-04-26T16:36:55.536Z,7.10
2019-04-26T16:38:34.364Z,7.08
2019-04-26T16:40:12.488Z,7.60
2019-04-26T16:41:44.681Z,8.13
2019-04-26T16:43:34.889Z,8.85
2019-04-26T16:44:55.202Z,8.50
2019-04-26T16:46:29.704Z,7.17
2019-04-26T16:48:03.915Z,6.85
2019-04-26T16:49:42.078Z,7.67
2019-04-26T16:51:14.410Z,9.28
2019-04-26T16:52:50.248Z,9.15
2019-04-26T16:54:26.772Z,11.78
2019-04-26T16:56:00.374Z,8.20
2019-04-26T16:57:34.580Z,8.00
2019-04-26T16:59:14.328Z,7.08
2019-04-26T17:00:51.576Z,8.23
2019-04-26T17:02:25.664Z,7.15
2019-04-26T17:03:56.424Z,6.92
2019-04-26T17:05:46.911Z,6.83
2019-04-26T17:07:06.559Z,6.60
2019-04-26T17:08:49.174Z,7.90
2019-04-26T17:10:20.706Z,7.37
2019-04-26T17:11:52.485Z,9.10
2019-04-26T17:13:30.040Z,6.97
2019-04-26T17:15:03.385Z,7.92
2019-04-26T17:16:38.328Z,8.60
2019-04-26T17:18:12.825Z,7.72
2019-04-26T17:19:47.029Z,7.83
2019-04-26T17:21:25.584Z,8.10
2019-04-26T17:23:03.265Z,8.53
2019-04-26T17:24:53.299Z,8.10
2019-04-26T17:26:33.658Z,9.40
2019-04-26T17:28:07.717Z,7.85
2019-04-26T17:29:42.302Z,7.78
2019-04-26T17:31:17.512Z,8.00
2019-04-26T17:32:55.354Z,7.70
2019-04-26T17:34:30.304Z,7.37
2019-04-26T17:36:05.917Z,7.45
2019-04-26T17:37:41.119Z,7.65
2019-04-26T17:39:17.281Z,8.40
2019-04-26T17:40:53.964Z,7.72
2019-04-26T17:42:29.807Z,8.55
2019-04-26T17:44:10.565Z,7.33
2019-04-26T17:45:40.791Z,7.55
2019-04-26T17:47:15.885Z,7.30
2019-04-26T17:48:51.699Z,7.87
2019-04-26T17:50:25.947Z,7.45
2019-04-26T17:52:01.898Z,8.53
2019-04-26T17:53:36.116Z,7.78
2019-04-26T17:55:11.910Z,7.80
2019-04-26T17:56:46.332Z,7.80
2019-04-26T17:58:27.768Z,7.83
2019-04-26T18:00:07.227Z,7.53
2019-04-26T18:01:43.116Z,8.03
2019-04-26T18:03:11.680Z,8.40
2019-04-26T18:04:44.013Z,8.83
2019-04-26T18:06:28.999Z,8.88
2019-04-26T18:07:58.556Z,8.55
2019-04-26T18:09:42.390Z,8.63
2019-04-26T18:11:08.589Z,8.10
2019-04-26T18:12:44.484Z,8.90
2019-04-26T18:14:21.434Z,11.97
2019-04-26T18:15:54.709Z,14.43
2019-04-26T18:17:40.397Z,12.28
2019-04-26T18:19:16.630Z,15.23
2019-04-26T18:20:55.448Z,9.18
2019-04-26T18:22:34.560Z,15.90
2019-04-26T18:24:07.177Z,16.15
2019-04-26T18:25:44.957Z,15.55
2019-04-26T18:27:17.325Z,15.65
2019-04-26T18:28:54.529Z,13.10
2019-04-26T18:30:27.702Z,16.17
2019-04-26T18:32:03.698Z,13.93
2019-04-26T18:33:38.420Z,13.18
2019-04-26T18:35:15.696Z,8.88
2019-04-26T18:36:48.468Z,8.10
2019-04-26T18:38:22.892Z,8.58
2019-04-26T18:40:02.080Z,7.58
2019-04-26T18:41:34.762Z,8.28
2019-04-26T18:43:12.474Z,7.78
2019-04-26T18:44:47.902Z,8.18
2019-04-26T18:46:24.037Z,7.85
2019-04-26T18:48:01.405Z,8.23
2019-04-26T18:49:34.215Z,7.78
2019-04-26T18:51:11.139Z,7.40
2019-04-26T18:52:49.060Z,8.48
2019-04-26T18:54:30.730Z,8.73
2019-04-26T18:56:06.812Z,7.62
2019-04-26T18:57:42.985Z,11.40
2019-04-26T18:59:17.375Z,12.43
2019-04-26T19:00:53.084Z,12.53
2019-04-26T19:02:28.403Z,13.03
2019-04-26T19:04:09.863Z,13.40
2019-04-26T19:05:38.492Z,12.47
2019-04-26T19:07:16.025Z,11.75
2019-04-26T19:08:52.274Z,12.10
2019-04-26T19:10:29.274Z,11.78
2019-04-26T19:12:02.013Z,11.20
2019-04-26T19:13:46.429Z,10.72
2019-04-26T19:15:40.252Z,10.78
2019-04-26T19:17:12.165Z,11.20
2019-04-26T19:18:54.221Z,10.72
2019-04-26T19:20:30.102Z,10.80
2019-04-26T19:22:09.384Z,10.20
2019-04-26T19:23:41.875Z,11.33
2019-04-26T19:25:21.495Z,11.90
2019-04-26T19:26:52.056Z,12.85
2019-04-26T19:28:26.895Z,12.05
2019-04-26T19:30:04.306Z,11.97
2019-04-26T19:31:36.998Z,12.68
2019-04-26T19:33:16.588Z,10.85
2019-04-26T19:34:47.438Z,13.55
2019-04-26T19:36:24.433Z,13.72
2019-04-26T19:37:57.616Z,13.35
2019-04-26T19:39:35.070Z,13.35
2019-04-26T19:41:07.802Z,12.33
2019-04-26T19:42:42.447Z,12.23
2019-04-26T19:44:18.913Z,11.68
2019-04-26T19:46:09.752Z,14.20
2019-04-26T19:47:45.641Z,11.20
2019-04-26T19:49:37.693Z,11.35
2019-04-26T19:51:13.596Z,10.95
2019-04-26T19:53:01.891Z,10.72
2019-04-26T19:54:41.819Z,11.30
2019-04-26T19:56:24.567Z,11.73
2019-04-26T19:58:01.929Z,11.53
2019-04-26T19:59:36.716Z,11.05
2019-04-26T20:01:12.274Z,10.82
2019-04-26T20:02:47.773Z,9.70
2019-04-26T20:04:24.509Z,10.48
2019-04-26T20:05:57.973Z,9.90
2019-04-26T20:07:33.377Z,10.63
2019-04-26T20:09:08.381Z,10.93
2019-04-26T20:10:45.436Z,9.15
2019-04-26T20:12:18.483Z,10.48
2019-04-26T20:13:55.148Z,9.43
2019-04-26T20:15:28.781Z,10.98
2019-04-26T20:17:03.013Z,10.58
2019-04-26T20:18:38.900Z,9.98
2019-04-26T20:20:20.737Z,9.25
2019-04-26T20:21:49.677Z,10.88
2019-04-26T20:23:26.461Z,10.88
2019-04-26T20:25:02.337Z,9.85
2019-04-26T20:26:37.410Z,10.75
2019-04-26T20:28:14.012Z,10.98
2019-04-26T20:29:49.531Z,10.05
2019-04-26T20:31:25.412Z,10.35
2019-04-26T20:33:01.661Z,9.18
2019-04-26T20:34:35.656Z,9.68
2019-04-26T20:36:10.202Z,9.85
2019-04-26T20:37:45.231Z,9.03
2019-04-26T20:39:20.969Z,10.03
2019-04-26T20:40:56.218Z,9.48
2019-04-26T20:42:31.646Z,10.40
2019-04-26T20:44:09.736Z,8.98
2019-04-26T20:45:48.703Z,9.43
2019-04-26T20:47:17.937Z,9.98
2019-04-26T20:48:52.145Z,10.48
2019-04-26T20:50:28.663Z,9.30
2019-04-26T20:52:02.220Z,9.75
2019-04-26T20:53:41.027Z,8.73
2019-04-26T20:55:13.752Z,9.18
2019-04-26T20:56:52.563Z,8.85
2019-04-26T20:58:24.017Z,10.58
2019-04-26T21:00:03.244Z,9.30
2019-04-26T21:01:34.476Z,9.60
2019-04-26T21:03:21.088Z,9.68
2019-04-26T21:04:46.176Z,9.65
2019-04-26T21:06:21.970Z,10.25
2019-04-26T21:07:56.295Z,8.60
2019-04-26T21:09:32.231Z,9.03
2019-04-26T21:11:06.450Z,9.25
2019-04-26T21:12:41.803Z,9.95
2019-04-26T21:14:17.821Z,10.38
2019-04-26T21:15:58.176Z,9.25
2019-04-26T21:17:27.999Z,9.55
2019-04-26T21:19:03.915Z,10.30
2019-04-26T21:20:38.136Z,10.40
2019-04-26T21:22:12.416Z,10.25
2019-04-26T21:23:48.350Z,10.85
2019-04-26T21:25:32.495Z,9.80
2019-04-26T21:27:25.970Z,10.30
2019-04-26T21:29:00.277Z,9.80
2019-04-26T21:30:38.514Z,11.10
2019-04-26T21:32:20.343Z,8.93
2019-04-26T21:34:03.704Z,10.78
2019-04-26T21:35:48.986Z,9.78
2019-04-26T21:37:25.090Z,11.30
2019-04-26T21:39:13.766Z,11.30
2019-04-26T21:40:56.829Z,10.45
2019-04-26T21:42:28.220Z,10.93
2019-04-26T21:44:03.130Z,10.25
2019-04-26T21:45:37.623Z,10.50
2019-04-26T21:47:13.457Z,9.75
2019-04-26T21:48:47.800Z,11.05
2019-04-26T21:50:22.064Z,12.85
2019-04-26T21:51:56.331Z,13.18